Time;durP1;ratioP1;P1;durP2;ratioP2;P2;SDS_P1;SDS_P2;PMS_P1;PMS_P2;Temp;Humidity;BMP_temperature;BMP_pressure;BME280_temperature;BME280_humidity;BME280_pressure;Samples;Min_cycle;Max_cycle;Signal;HPM_P1;HPM_P2
2023/10/31 00:01:43;;;;;;;6.47;5.47;;;;;;;12.18;82.64;99588.41;5046944;28;20024;-63
2023/10/31 00:04:15;;;;;;;5.88;5.20;;;;;;;12.18;82.28;99599.53;5048929;28;20055;-63
2023/10/31 00:06:43;;;;;;;7.40;5.27;;;;;;;12.17;82.27;99598.72;5049129;28;20025;-63
2023/10/31 00:09:11;;;;;;;5.90;4.60;;;;;;;12.16;82.49;99607.38;5041651;28;20333;-64
2023/10/31 00:11:37;;;;;;;6.18;4.63;;;;;;;12.16;82.13;99610.16;5028001;28;20037;-64
2023/10/31 00:14:02;;;;;;;5.53;4.20;;;;;;;12.16;82.31;99608.19;5028272;28;20589;-62
2023/10/31 00:16:28;;;;;;;7.72;4.38;;;;;;;12.13;82.29;99616.31;5045115;28;20385;-62
2023/10/31 00:18:53;;;;;;;5.95;3.92;;;;;;;12.16;82.02;99624.06;5051016;28;20032;-63
2023/10/31 00:21:19;;;;;;;5.70;3.72;;;;;;;12.14;82.21;99617.94;5033936;28;20022;-63
2023/10/31 00:23:45;;;;;;;7.47;3.88;;;;;;;12.09;81.94;99624.41;5049501;28;20039;-63
2023/10/31 00:26:11;;;;;;;6.70;3.70;;;;;;;12.12;82.04;99620.22;5058134;28;20044;-63
2023/10/31 00:28:36;;;;;;;5.18;3.30;;;;;;;12.08;81.94;99613.56;5044538;28;20040;-63
2023/10/31 00:31:03;;;;;;;4.57;2.88;;;;;;;12.04;81.68;99616.13;5030211;28;20026;-63
2023/10/31 00:33:29;;;;;;;4.10;3.17;;;;;;;12.07;82.16;99617.50;5030362;28;20548;-63
2023/10/31 00:35:54;;;;;;;5.22;2.67;;;;;;;12.06;81.93;99621.38;5030511;28;20079;-63
2023/10/31 00:38:19;;;;;;;5.13;2.80;;;;;;;12.08;81.90;99627.50;5044571;28;20444;-63
2023/10/31 00:40:45;;;;;;;4.82;2.85;;;;;;;12.07;81.94;99626.66;5038450;28;20044;-64
2023/10/31 00:43:10;;;;;;;7.32;3.05;;;;;;;12.00;81.86;99624.22;5054318;28;20029;-63
2023/10/31 00:45:35;;;;;;;6.47;2.88;;;;;;;12.06;81.91;99630.53;5037102;28;20033;-64
2023/10/31 00:48:00;;;;;;;5.70;2.90;;;;;;;12.06;81.60;99635.28;5032147;28;20147;-63
2023/10/31 00:50:28;;;;;;;3.85;2.85;;;;;;;12.04;81.73;99643.94;5031151;28;20580;-63
2023/10/31 00:52:54;;;;;;;4.60;2.60;;;;;;;12.02;81.91;99644.22;5031890;28;20084;-63
2023/10/31 00:55:19;;;;;;;4.35;2.60;;;;;;;12.02;82.14;99647.00;5033931;28;20112;-63
2023/10/31 00:57:45;;;;;;;6.30;2.83;;;;;;;12.08;82.16;99649.75;5048749;28;20037;-63
2023/10/31 01:00:10;;;;;;;4.57;2.60;;;;;;;12.08;82.17;99652.53;5054547;28;20060;-63
2023/10/31 01:02:36;;;;;;;5.55;2.72;;;;;;;12.04;81.55;99647.53;5051144;28;20025;-63
2023/10/31 01:05:01;;;;;;;5.57;2.92;;;;;;;12.06;82.01;99654.75;5050583;28;20033;-63
2023/10/31 01:07:26;;;;;;;5.70;3.17;;;;;;;12.09;81.80;99656.94;5047817;28;20036;-63
2023/10/31 01:09:52;;;;;;;7.55;4.18;;;;;;;12.06;81.86;99663.09;5041231;28;20045;-63
2023/10/31 01:12:23;;;;;;;6.10;4.00;;;;;;;12.07;82.10;99664.78;5048300;28;20091;-63
2023/10/31 01:14:51;;;;;;;7.67;6.10;;;;;;;12.07;81.88;99671.16;5055315;28;20511;-63
2023/10/31 01:17:16;;;;;;;9.63;6.60;;;;;;;12.04;81.88;99667.00;5068558;28;20009;-63
2023/10/31 01:19:42;;;;;;;12.65;8.45;;;;;;;12.06;82.09;99668.66;5050548;28;20029;-63
2023/10/31 01:22:07;;;;;;;13.15;9.10;;;;;;;11.99;82.26;99669.84;5051514;28;20024;-63
2023/10/31 01:24:32;;;;;;;11.52;9.27;;;;;;;12.01;82.50;99681.47;5037920;28;20057;-63
2023/10/31 01:26:57;;;;;;;15.38;11.68;;;;;;;11.97;82.62;99666.50;5035716;28;20048;-63
2023/10/31 01:29:23;;;;;;;16.15;12.43;;;;;;;11.93;82.49;99665.44;5031893;28;20089;-63
2023/10/31 01:31:48;;;;;;;13.27;11.90;;;;;;;11.94;82.73;99675.41;5031626;28;20362;-63
2023/10/31 01:34:13;;;;;;;17.60;13.75;;;;;;;11.97;82.81;99672.06;5032090;28;20500;-63
2023/10/31 01:36:38;;;;;;;19.45;15.68;;;;;;;11.94;82.64;99672.63;5031650;28;20037;-63
2023/10/31 01:39:04;;;;;;;20.73;16.92;;;;;;;11.94;82.62;99671.81;5048448;28;20158;-63
2023/10/31 01:41:29;;;;;;;18.13;15.35;;;;;;;11.97;82.49;99666.50;5048260;28;20033;-63
2023/10/31 01:44:04;;;;;;;21.20;16.67;;;;;;;12.02;82.75;99672.03;5038175;28;20187;-64
2023/10/31 01:46:29;;;;;;;17.85;15.95;;;;;;;12.03;82.35;99672.88;5030469;28;20032;-63
2023/10/31 01:48:54;;;;;;;21.67;19.15;;;;;;;12.00;82.17;99668.72;5031334;28;20033;-63
2023/10/31 01:51:20;;;;;;;21.55;18.38;;;;;;;12.00;82.50;99667.88;5037897;28;20108;-63
2023/10/31 01:53:48;;;;;;;22.13;18.98;;;;;;;12.00;82.53;99668.72;5051699;28;20042;-63
2023/10/31 01:56:14;;;;;;;23.23;19.67;;;;;;;11.97;82.46;99665.69;5045426;28;20071;-63
2023/10/31 01:58:39;;;;;;;23.90;20.45;;;;;;;11.98;82.91;99665.38;5031242;28;20068;-63
2023/10/31 02:01:05;;;;;;;25.35;20.55;;;;;;;12.02;82.44;99671.19;5028239;28;20029;-63
2023/10/31 02:03:31;;;;;;;25.67;21.08;;;;;;;12.00;82.59;99677.06;5035164;28;20587;-63
2023/10/31 02:05:59;;;;;;;27.33;21.73;;;;;;;12.00;82.54;99684.56;5033331;28;20021;-63
2023/10/31 02:08:25;;;;;;;27.15;22.05;;;;;;;11.98;82.79;99684.84;5038388;28;20085;-63
2023/10/31 02:10:51;;;;;;;27.85;22.75;;;;;;;11.99;82.59;99677.34;5055284;28;20433;-64
2023/10/31 02:13:17;;;;;;;27.80;22.13;;;;;;;11.98;82.92;99684.84;5050591;28;20028;-63
2023/10/31 02:15:43;;;;;;;27.30;21.92;;;;;;;12.01;82.68;99681.47;5049883;28;20040;-63
2023/10/31 02:18:09;;;;;;;30.25;22.90;;;;;;;11.97;82.79;99680.41;5050555;28;20021;-63
2023/10/31 02:20:35;;;;;;;31.00;23.17;;;;;;;11.99;83.18;99678.19;5043870;28;20102;-63
2023/10/31 02:23:02;;;;;;;27.63;23.30;;;;;;;11.98;83.10;99675.66;5039536;28;20133;-63
2023/10/31 02:25:27;;;;;;;26.88;23.80;;;;;;;11.97;82.78;99677.63;5050987;28;20457;-64
2023/10/31 02:27:52;;;;;;;28.13;22.73;;;;;;;11.98;83.25;99675.66;5030898;28;20107;-64
2023/10/31 02:30:18;;;;;;;27.48;22.05;;;;;;;11.97;82.98;99676.81;5032258;28;20029;-66
2023/10/31 02:32:43;;;;;;;29.25;23.52;;;;;;;11.98;82.98;99673.72;5036272;28;20100;-63
2023/10/31 02:35:12;;;;;;;28.95;22.85;;;;;;;11.96;83.14;99684.31;5052440;28;20473;-63
2023/10/31 02:37:37;;;;;;;32.47;24.25;;;;;;;11.98;83.12;99682.06;5069553;28;20035;-63
2023/10/31 02:40:02;;;;;;;28.63;23.80;;;;;;;11.99;83.48;99691.25;5055148;28;20033;-63
2023/10/31 02:42:28;;;;;;;28.73;24.48;;;;;;;11.97;83.64;99685.97;5044794;28;20029;-63
2023/10/31 02:44:53;;;;;;;30.83;24.70;;;;;;;11.96;83.43;99687.09;5055772;28;20087;-63
2023/10/31 02:47:40;;;;;;;29.70;24.77;;;;;;;12.00;83.41;99692.91;5055973;28;20468;-64
2023/10/31 02:50:11;;;;;;;32.33;26.52;;;;;;;11.95;83.29;99696.56;5068716;28;20032;-63
2023/10/31 02:52:36;;;;;;;29.95;25.50;;;;;;;11.98;83.12;99700.69;5045011;28;20449;-63
2023/10/31 02:55:02;;;;;;;32.78;26.52;;;;;;;11.96;83.51;99703.78;5037396;28;20116;-63
2023/10/31 02:57:27;;;;;;;32.28;25.95;;;;;;;11.93;83.33;99700.75;5034456;28;20039;-63
2023/10/31 02:59:53;;;;;;;30.17;25.15;;;;;;;11.96;83.52;99702.97;5040791;28;20111;-63
2023/10/31 03:02:18;;;;;;;32.67;26.48;;;;;;;11.95;83.16;99712.44;5050706;28;20477;-64
2023/10/31 03:04:43;;;;;;;31.00;25.70;;;;;;;11.97;83.13;99711.00;5050504;28;20105;-63
2023/10/31 03:07:09;;;;;;;30.25;25.60;;;;;;;11.98;83.29;99718.22;5054416;28;20025;-63
2023/10/31 03:09:34;;;;;;;31.58;26.23;;;;;;;11.96;83.30;99714.91;5050608;28;20111;-63
2023/10/31 03:11:59;;;;;;;31.80;27.20;;;;;;;11.99;83.12;99727.41;5035055;28;20125;-63
2023/10/31 03:14:25;;;;;;;29.63;26.42;;;;;;;11.97;82.64;99721.28;5036283;28;20053;-63
2023/10/31 03:16:50;;;;;;;32.70;26.92;;;;;;;11.95;83.19;99721.59;5033949;28;20029;-63
2023/10/31 03:19:16;;;;;;;33.08;26.77;;;;;;;11.91;83.21;99728.84;5033025;28;20063;-63
2023/10/31 03:21:44;;;;;;;30.00;26.75;;;;;;;11.94;83.11;99733.81;5033603;28;20117;-63
2023/10/31 03:24:09;;;;;;;32.75;26.60;;;;;;;11.93;83.43;99734.13;5047620;28;20118;-63
2023/10/31 03:26:34;;;;;;;31.65;27.85;;;;;;;11.94;83.12;99742.16;5052630;28;20087;-63
2023/10/31 03:29:02;;;;;;;31.33;27.98;;;;;;;11.97;83.64;99746.31;5053515;28;20151;-63
2023/10/31 03:31:27;;;;;;;32.88;28.17;;;;;;;11.96;83.41;99748.28;5044726;28;20033;-63
2023/10/31 03:33:53;;;;;;;34.30;30.35;;;;;;;11.96;83.25;99759.41;5038775;28;20033;-63
2023/10/31 03:36:19;;;;;;;32.42;28.80;;;;;;;11.97;83.47;99755.50;5039751;28;20032;-63
2023/10/31 03:38:45;;;;;;;34.75;29.80;;;;;;;11.96;83.26;99748.28;5051694;28;20033;-63
2023/10/31 03:41:10;;;;;;;41.35;31.58;;;;;;;11.87;83.10;99750.03;5049889;28;20033;-63
2023/10/31 03:43:36;;;;;;;35.40;30.85;;;;;;;11.92;83.78;99751.94;5033279;28;20041;-63
2023/10/31 03:46:01;;;;;;;36.13;30.80;;;;;;;11.93;83.69;99759.97;5032393;28;20107;-63
2023/10/31 03:48:27;;;;;;;38.10;31.88;;;;;;;11.93;83.68;99767.50;5039979;28;20035;-63
2023/10/31 03:50:52;;;;;;;37.10;31.25;;;;;;;11.92;83.23;99761.09;5037106;28;20865;-63
2023/10/31 03:53:17;;;;;;;34.88;30.50;;;;;;;11.91;83.55;99773.34;5032045;28;20025;-63
2023/10/31 03:55:43;;;;;;;36.50;32.25;;;;;;;11.92;83.43;99780.56;5047250;28;20484;-63
2023/10/31 03:58:08;;;;;;;35.72;30.88;;;;;;;11.92;83.61;99783.34;5051600;28;20401;-63
2023/10/31 04:00:33;;;;;;;38.72;32.13;;;;;;;11.91;83.41;99787.25;5049496;28;20029;-63
2023/10/31 04:02:59;;;;;;;35.60;31.48;;;;;;;11.89;83.41;99785.88;5056264;28;20026;-63
2023/10/31 04:05:24;;;;;;;36.42;31.33;;;;;;;11.88;83.68;99781.44;5032511;28;20029;-63
2023/10/31 04:07:49;;;;;;;36.97;31.73;;;;;;;11.89;83.69;99785.88;5042118;28;20043;-63
2023/10/31 04:10:15;;;;;;;35.03;29.48;;;;;;;11.91;83.80;99792.00;5043569;28;20098;-63
2023/10/31 04:12:41;;;;;;;38.65;32.30;;;;;;;11.91;83.93;99794.75;5052004;28;20021;-63
2023/10/31 04:15:08;;;;;;;35.22;30.30;;;;;;;11.91;83.62;99792.81;5052035;28;20086;-63
2023/10/31 04:17:33;;;;;;;33.20;28.70;;;;;;;11.90;83.75;99790.31;5039927;28;20021;-63
2023/10/31 04:19:59;;;;;;;31.85;28.27;;;;;;;11.92;83.45;99800.03;5032865;28;20040;-63
2023/10/31 04:22:24;;;;;;;30.25;26.40;;;;;;;11.93;83.23;99795.28;5032136;28;20491;-63
2023/10/31 04:24:49;;;;;;;31.83;28.42;;;;;;;11.96;83.11;99803.06;5043652;28;20061;-63
2023/10/31 04:27:14;;;;;;;32.63;27.98;;;;;;;11.93;83.35;99803.63;5039178;28;20029;-63
2023/10/31 04:29:40;;;;;;;30.00;26.63;;;;;;;11.92;83.21;99802.81;5034744;28;20037;-63
2023/10/31 04:32:06;;;;;;;29.98;26.05;;;;;;;11.95;83.11;99812.53;5060998;28;20043;-63
2023/10/31 04:34:31;;;;;;;27.52;24.60;;;;;;;11.90;83.27;99823.66;5048522;28;20037;-63
2023/10/31 04:36:56;;;;;;;27.77;24.77;;;;;;;11.88;83.14;99821.19;5045996;28;20120;-63
2023/10/31 04:39:22;;;;;;;27.30;23.98;;;;;;;11.92;83.29;99827.00;5044676;28;20087;-63
2023/10/31 04:41:47;;;;;;;29.17;25.25;;;;;;;11.92;83.08;99830.63;5049235;28;20035;-63
2023/10/31 04:44:13;;;;;;;27.08;23.65;;;;;;;11.90;83.46;99837.56;5040044;28;20037;-63
2023/10/31 04:46:38;;;;;;;28.00;24.83;;;;;;;11.90;83.32;99837.56;5033444;28;20108;-63
2023/10/31 04:49:04;;;;;;;28.38;24.13;;;;;;;11.91;83.79;99833.69;5031433;28;20029;-63
2023/10/31 04:51:36;;;;;;;26.33;23.52;;;;;;;11.89;83.84;99849.81;5050029;28;20025;-62
2023/10/31 04:54:01;;;;;;;27.00;24.20;;;;;;;11.89;83.91;99845.09;5051180;28;20393;-63
2023/10/31 04:56:27;;;;;;;22.15;19.85;;;;;;;11.87;83.60;99844.56;5040418;28;20028;-63
2023/10/31 04:58:52;;;;;;;20.50;18.35;;;;;;;11.85;83.57;99852.34;5036478;28;20480;-63
2023/10/31 05:01:17;;;;;;;19.65;17.35;;;;;;;11.83;83.81;99850.91;5044927;28;20025;-63
2023/10/31 05:03:43;;;;;;;21.15;18.50;;;;;;;11.83;83.90;99854.59;5049281;28;20041;-64
2023/10/31 05:06:08;;;;;;;20.67;17.83;;;;;;;11.83;83.87;99854.59;5064685;28;20035;-64
2023/10/31 05:08:33;;;;;;;20.77;18.65;;;;;;;11.84;83.79;99853.47;5060517;28;20079;-63
2023/10/31 05:10:59;;;;;;;21.98;19.55;;;;;;;11.86;83.90;99856.78;5062929;28;20039;-63
2023/10/31 05:13:24;;;;;;;22.40;20.08;;;;;;;11.83;84.15;99853.69;5044100;28;20021;-63
2023/10/31 05:15:50;;;;;;;24.67;22.02;;;;;;;11.82;83.89;99858.44;5050916;28;20025;-64
2023/10/31 05:18:16;;;;;;;23.15;20.45;;;;;;;11.83;83.73;99853.69;5064955;28;20485;-64
2023/10/31 05:20:42;;;;;;;24.75;22.15;;;;;;;11.81;83.88;99845.66;5050818;28;20075;-64
2023/10/31 05:23:07;;;;;;;25.40;22.80;;;;;;;11.80;83.79;99844.81;5049311;28;20049;-63
2023/10/31 05:25:32;;;;;;;23.65;21.23;;;;;;;11.85;84.17;99851.50;5060995;28;20055;-63
2023/10/31 05:27:59;;;;;;;25.08;22.38;;;;;;;11.85;83.83;99852.34;5062731;28;20100;-63
2023/10/31 05:30:25;;;;;;;23.83;21.42;;;;;;;11.80;83.38;99850.38;5048485;28;20025;-63
2023/10/31 05:32:50;;;;;;;23.52;21.02;;;;;;;11.78;83.48;99847.06;5057036;28;20032;-63
2023/10/31 05:35:16;;;;;;;22.50;20.20;;;;;;;11.82;83.60;99852.03;5064545;28;20051;-64
2023/10/31 05:37:41;;;;;;;22.25;20.05;;;;;;;11.79;83.93;99848.72;5038998;28;20492;-63
2023/10/31 05:40:07;;;;;;;22.55;20.17;;;;;;;11.77;83.85;99855.69;5051904;28;20056;-63
2023/10/31 05:42:32;;;;;;;22.25;20.15;;;;;;;11.78;83.72;99862.91;5061696;28;20020;-64
2023/10/31 05:44:57;;;;;;;21.55;19.35;;;;;;;11.81;83.37;99870.69;5052966;28;20048;-63
2023/10/31 05:47:23;;;;;;;22.35;20.15;;;;;;;11.80;83.40;99882.94;5055397;28;20434;-63
2023/10/31 05:49:48;;;;;;;21.38;19.30;;;;;;;11.78;83.31;99887.91;5045522;28;20044;-63
2023/10/31 05:52:13;;;;;;;22.20;19.90;;;;;;;11.79;83.54;99886.81;5046997;28;20609;-63
2023/10/31 05:54:39;;;;;;;22.33;20.23;;;;;;;11.78;83.49;99882.38;5068066;28;20032;-64
2023/10/31 05:57:04;;;;;;;21.38;19.15;;;;;;;11.74;83.60;99895.16;5046226;28;20024;-64
2023/10/31 05:59:29;;;;;;;21.73;19.50;;;;;;;11.76;83.47;99898.50;5054103;28;20032;-63
2023/10/31 06:01:55;;;;;;;20.20;18.33;;;;;;;11.74;83.33;99900.72;5037496;28;20029;-63
2023/10/31 06:04:20;;;;;;;19.63;17.67;;;;;;;11.75;83.35;99905.16;5040478;28;20489;-63
2023/10/31 06:06:48;;;;;;;18.27;16.58;;;;;;;11.75;83.19;99905.16;5052004;28;20310;-63
2023/10/31 06:09:14;;;;;;;17.52;15.82;;;;;;;11.69;82.87;99911.88;5047629;28;20040;-63
2023/10/31 06:11:42;;;;;;;18.75;16.95;;;;;;;11.69;82.48;99909.09;5041530;28;20032;-63
2023/10/31 06:14:11;;;;;;;18.83;16.92;;;;;;;11.67;82.85;99916.88;5040199;28;20045;-63
2023/10/31 06:16:43;;;;;;;17.88;16.27;;;;;;;11.66;82.75;99915.22;5037801;28;20439;-63
2023/10/31 06:19:10;;;;;;;18.38;16.67;;;;;;;11.65;82.14;99924.69;5034673;28;20028;-64
2023/10/31 06:21:35;;;;;;;18.48;16.63;;;;;;;11.62;82.57;99931.63;5044245;28;20476;-64
2023/10/31 06:24:02;;;;;;;18.73;16.83;;;;;;;11.62;82.21;99931.63;5049166;28;20079;-64
2023/10/31 06:26:30;;;;;;;17.95;16.25;;;;;;;11.61;82.41;99943.03;5033878;28;20218;-64
2023/10/31 06:28:59;;;;;;;17.77;16.08;;;;;;;11.62;82.18;99937.19;5037456;28;20083;-63
2023/10/31 06:31:24;;;;;;;19.38;17.45;;;;;;;11.59;82.07;99943.31;5045937;28;20108;-62
2023/10/31 06:33:49;;;;;;;20.35;18.45;;;;;;;11.57;82.45;99944.72;5047458;28;20539;-63
2023/10/31 06:36:15;;;;;;;18.98;17.10;;;;;;;11.58;82.52;99946.38;5032676;28;20037;-63
2023/10/31 06:38:40;;;;;;;20.13;18.17;;;;;;;11.62;82.61;99941.91;5053470;28;20089;-64
2023/10/31 06:41:06;;;;;;;21.08;19.00;;;;;;;11.60;82.80;99944.16;5044160;28;20028;-63
2023/10/31 06:43:31;;;;;;;21.20;19.05;;;;;;;11.57;83.01;99950.28;5050342;28;20028;-63
2023/10/31 06:46:00;;;;;;;22.73;20.27;;;;;;;11.59;82.70;99956.38;5045507;28;20025;-62
2023/10/31 06:48:25;;;;;;;21.58;19.52;;;;;;;11.62;82.64;99955.81;5046873;28;20479;-62
2023/10/31 06:50:50;;;;;;;21.77;19.52;;;;;;;11.62;83.17;99958.59;5042616;28;20033;-62
2023/10/31 06:53:16;;;;;;;23.02;20.70;;;;;;;11.61;82.92;99968.06;5053297;28;20057;-62
2023/10/31 06:55:41;;;;;;;23.10;20.83;;;;;;;11.63;82.99;99966.66;5044439;28;20116;-63
2023/10/31 06:58:06;;;;;;;23.10;20.80;;;;;;;11.60;82.86;99966.41;5033040;28;20099;-62
2023/10/31 07:00:32;;;;;;;20.67;18.65;;;;;;;11.66;83.23;99971.63;5047310;28;20033;-62
2023/10/31 07:03:04;;;;;;;20.83;18.83;;;;;;;11.63;82.85;99974.16;5037146;28;20048;-60
2023/10/31 07:05:33;;;;;;;20.13;18.10;;;;;;;11.63;83.11;99982.50;5047745;28;20407;-62
2023/10/31 07:07:58;;;;;;;19.50;17.60;;;;;;;11.63;82.99;99974.16;5058854;28;20078;-62
2023/10/31 07:10:23;;;;;;;18.38;16.65;;;;;;;11.63;82.54;99975.00;5036776;28;20401;-62
2023/10/31 07:12:49;;;;;;;17.85;16.25;;;;;;;11.64;82.49;99973.06;5044882;28;20087;-62
2023/10/31 07:15:14;;;;;;;17.77;16.08;;;;;;;11.63;82.67;99977.78;5039899;28;20053;-62
2023/10/31 07:17:42;;;;;;;16.42;14.88;;;;;;;11.65;82.36;99985.84;5048215;28;20464;-62
2023/10/31 07:20:07;;;;;;;16.67;15.05;;;;;;;11.58;82.75;99982.50;5036534;28;20497;-62
2023/10/31 07:22:34;;;;;;;15.80;14.40;;;;;;;11.63;82.52;99988.03;5048232;28;20033;-62
2023/10/31 07:25:02;;;;;;;15.82;14.30;;;;;;;11.64;82.71;99986.94;5047801;28;20053;-61
2023/10/31 07:27:28;;;;;;;15.32;13.93;;;;;;;11.61;82.39;99995.84;5044680;28;20048;-63
2023/10/31 07:29:53;;;;;;;15.02;13.63;;;;;;;11.64;82.42;99993.34;5049887;28;20468;-61
2023/10/31 07:32:18;;;;;;;15.32;13.95;;;;;;;11.59;82.61;100000.84;5045484;28;20115;-62
2023/10/31 07:34:43;;;;;;;14.93;13.57;;;;;;;11.59;82.86;100004.44;5052641;28;20033;-62
2023/10/31 07:37:09;;;;;;;14.23;12.82;;;;;;;11.63;82.83;100000.03;5045466;28;20620;-62
2023/10/31 07:39:34;;;;;;;13.52;12.32;;;;;;;11.63;82.89;100007.50;5050289;28;20029;-63
2023/10/31 07:41:59;;;;;;;14.52;13.00;;;;;;;11.63;82.83;100005.59;5040211;28;20055;-63
2023/10/31 07:44:25;;;;;;;14.70;13.27;;;;;;;11.64;82.83;100001.69;5031708;28;20025;-63
2023/10/31 07:46:50;;;;;;;13.40;12.10;;;;;;;11.68;82.98;100010.28;5031065;28;20377;-62
2023/10/31 07:49:21;;;;;;;13.57;12.27;;;;;;;11.64;82.75;100006.41;5042433;28;20028;-63
2023/10/31 07:51:47;;;;;;;14.25;12.60;;;;;;;11.62;83.15;100008.63;5029668;28;20079;-62
2023/10/31 07:54:13;;;;;;;15.35;12.82;;;;;;;11.59;83.25;100012.78;5045627;28;20044;-62
2023/10/31 07:56:40;;;;;;;13.65;12.35;;;;;;;11.64;82.95;100000.84;5031702;28;20029;-62
2023/10/31 07:59:06;;;;;;;13.77;12.48;;;;;;;11.61;83.18;100013.34;5048566;28;20159;-62
2023/10/31 08:01:31;;;;;;;15.50;13.90;;;;;;;11.65;83.51;100010.84;5049749;28;20128;-62
2023/10/31 08:03:56;;;;;;;14.90;13.50;;;;;;;11.67;83.25;100014.16;5039585;28;20041;-62
2023/10/31 08:06:21;;;;;;;16.20;14.75;;;;;;;11.68;83.44;100007.50;5039139;28;20045;-62
2023/10/31 08:08:49;;;;;;;16.08;14.68;;;;;;;11.70;83.84;100021.94;5039943;28;20079;-61
2023/10/31 08:11:15;;;;;;;18.85;17.05;;;;;;;11.69;83.69;100025.84;5031596;28;20488;-61
2023/10/31 08:13:40;;;;;;;17.52;15.93;;;;;;;11.73;83.81;100026.94;5031517;28;20037;-62
2023/10/31 08:16:06;;;;;;;20.80;18.70;;;;;;;11.73;83.86;100033.34;5032841;28;20041;-63
2023/10/31 08:18:32;;;;;;;21.40;19.40;;;;;;;11.76;83.88;100030.00;5044766;28;20029;-61
2023/10/31 08:20:57;;;;;;;22.45;20.42;;;;;;;11.77;83.72;100026.09;5045266;28;20027;-61
2023/10/31 08:23:22;;;;;;;25.73;23.30;;;;;;;11.75;83.42;100030.28;5047641;28;20128;-62
2023/10/31 08:25:48;;;;;;;23.58;21.17;;;;;;;11.74;83.56;100035.00;5051617;28;20077;-61
2023/10/31 08:28:14;;;;;;;24.50;21.98;;;;;;;11.75;83.60;100024.72;5046522;28;20057;-62
2023/10/31 08:30:39;;;;;;;22.63;20.33;;;;;;;11.74;83.31;100023.88;5031999;28;20029;-62
2023/10/31 08:33:05;;;;;;;23.35;20.90;;;;;;;11.73;83.71;100040.84;5031664;28;20049;-62
2023/10/31 08:35:31;;;;;;;23.00;20.70;;;;;;;11.74;83.48;100039.72;5031983;28;20029;-63
2023/10/31 08:37:57;;;;;;;24.15;21.65;;;;;;;11.74;83.69;100036.94;5060188;28;20040;-62
2023/10/31 08:40:22;;;;;;;23.20;20.75;;;;;;;11.70;83.22;100041.41;5037222;28;20028;-62
2023/10/31 08:42:48;;;;;;;21.00;18.80;;;;;;;11.73;83.45;100032.50;5031062;28;20036;-63
2023/10/31 08:45:13;;;;;;;21.15;18.95;;;;;;;11.75;83.36;100046.94;5031271;28;20100;-63
2023/10/31 08:47:41;;;;;;;22.38;20.02;;;;;;;11.76;83.63;100049.47;5032027;28;20029;-62
2023/10/31 08:50:08;;;;;;;23.83;19.10;;;;;;;11.78;83.35;100054.72;5029741;28;20064;-62
2023/10/31 08:52:34;;;;;;;22.02;19.77;;;;;;;11.78;83.73;100063.91;5032853;28;20053;-63
2023/10/31 08:54:59;;;;;;;22.58;18.98;;;;;;;11.79;83.72;100070.31;5045940;28;20435;-62
2023/10/31 08:57:24;;;;;;;22.55;18.58;;;;;;;11.80;83.73;100077.53;5031549;28;20029;-62
2023/10/31 08:59:50;;;;;;;21.67;19.42;;;;;;;11.77;83.65;100078.09;5033963;28;20029;-62
2023/10/31 09:02:15;;;;;;;21.05;18.80;;;;;;;11.79;83.62;100085.06;5029274;28;20041;-61
2023/10/31 09:04:40;;;;;;;20.52;18.40;;;;;;;11.84;83.97;100094.53;5033781;28;20029;-62
2023/10/31 09:07:05;;;;;;;19.85;17.35;;;;;;;11.86;83.65;100092.28;5052558;28;20036;-61
2023/10/31 09:09:31;;;;;;;21.00;18.17;;;;;;;11.87;83.75;100092.03;5047450;28;20029;-62
2023/10/31 09:11:56;;;;;;;23.05;18.80;;;;;;;11.91;83.81;100107.03;5042849;28;20041;-62
2023/10/31 09:14:24;;;;;;;20.00;17.73;;;;;;;11.93;83.74;100101.19;5030474;28;20124;-62
2023/10/31 09:16:49;;;;;;;22.17;18.30;;;;;;;11.92;83.25;100105.91;5030065;28;20037;-61
2023/10/31 09:19:17;;;;;;;19.90;17.77;;;;;;;11.94;83.69;100106.47;5028689;28;20026;-62
2023/10/31 09:21:43;;;;;;;22.65;18.70;;;;;;;11.96;83.58;100108.97;5042712;28;20033;-62
2023/10/31 09:24:09;;;;;;;21.33;17.85;;;;;;;11.95;83.42;100116.50;5044843;28;20024;-62
2023/10/31 09:26:34;;;;;;;20.92;18.65;;;;;;;11.94;83.51;100119.53;5041913;28;20106;-61
2023/10/31 09:28:59;;;;;;;26.15;19.10;;;;;;;11.98;83.49;100128.97;5030509;28;20492;-62
2023/10/31 09:31:25;;;;;;;24.25;18.17;;;;;;;11.93;83.07;100124.25;5029676;28;20022;-62
2023/10/31 09:33:50;;;;;;;22.85;19.08;;;;;;;11.97;83.64;100130.94;5030401;28;20479;-62
2023/10/31 09:36:15;;;;;;;23.15;18.88;;;;;;;12.11;83.64;100136.78;5040140;28;20020;-62
2023/10/31 09:38:41;;;;;;;22.67;18.90;;;;;;;12.14;83.10;100143.69;5041862;28;20045;-62
2023/10/31 09:41:06;;;;;;;20.45;18.20;;;;;;;12.14;83.56;100152.88;5032341;28;20028;-61
2023/10/31 09:43:32;;;;;;;20.48;18.23;;;;;;;12.13;82.93;100159.56;5029820;28;20232;-62
2023/10/31 09:46:04;;;;;;;24.83;18.40;;;;;;;12.15;83.03;100159.28;5027821;28;20057;-62
2023/10/31 09:48:31;;;;;;;21.35;17.90;;;;;;;12.12;82.58;100148.72;5049927;28;20031;-62
2023/10/31 09:50:56;;;;;;;20.23;17.60;;;;;;;12.08;82.48;100150.41;5050443;28;20052;-62
2023/10/31 09:53:23;;;;;;;20.02;17.58;;;;;;;12.07;82.85;100157.09;5049209;28;20465;-62
2023/10/31 09:55:50;;;;;;;18.85;16.85;;;;;;;12.10;82.92;100164.84;5056160;28;20502;-62
2023/10/31 09:58:15;;;;;;;21.30;17.27;;;;;;;12.13;82.71;100164.28;5051588;28;20021;-62
2023/10/31 10:00:40;;;;;;;18.92;16.90;;;;;;;12.16;83.14;100159.00;5049308;28;20021;-62
2023/10/31 10:03:09;;;;;;;18.00;16.15;;;;;;;12.17;82.97;100159.84;5070648;28;20077;-62
2023/10/31 10:05:39;;;;;;;20.63;16.90;;;;;;;12.18;82.83;100164.28;5047051;28;20053;-62
2023/10/31 10:08:04;;;;;;;18.73;16.77;;;;;;;12.20;82.54;100167.63;5045016;28;20025;-62
2023/10/31 10:10:31;;;;;;;18.02;16.08;;;;;;;12.21;82.92;100164.56;5056346;28;20120;-62
2023/10/31 10:12:57;;;;;;;18.02;16.15;;;;;;;12.22;83.58;100165.38;5069202;28;20013;-62
2023/10/31 10:15:22;;;;;;;19.33;16.42;;;;;;;12.27;82.36;100182.09;5071511;28;20533;-63
2023/10/31 10:17:51;;;;;;;18.35;16.33;;;;;;;12.25;81.99;100189.88;5037002;28;20496;-63
2023/10/31 10:20:17;;;;;;;17.50;15.68;;;;;;;12.27;82.24;100187.66;5053470;28;20035;-62
2023/10/31 10:22:43;;;;;;;17.85;16.10;;;;;;;12.28;81.91;100192.09;5054325;28;20083;-62
2023/10/31 10:25:11;;;;;;;18.52;16.33;;;;;;;12.23;81.63;100192.94;5045251;28;20132;-63
2023/10/31 10:27:37;;;;;;;17.15;15.43;;;;;;;12.22;81.55;100190.41;5036388;28;20045;-63
2023/10/31 10:30:07;;;;;;;16.88;14.98;;;;;;;12.21;82.04;100197.94;5033132;28;20067;-63
2023/10/31 10:32:33;;;;;;;16.75;14.90;;;;;;;12.21;82.14;100199.88;5038364;28;20394;-62
2023/10/31 10:34:58;;;;;;;17.67;15.18;;;;;;;12.20;81.68;100204.63;5033100;28;20033;-62
2023/10/31 10:37:27;;;;;;;17.25;15.27;;;;;;;12.22;82.25;100210.75;5046109;28;20511;-62
2023/10/31 10:39:55;;;;;;;15.55;13.90;;;;;;;12.23;82.21;100214.38;5048940;28;20401;-62
2023/10/31 10:42:42;;;;;;;16.67;14.27;;;;;;;12.21;82.07;100214.63;5032565;28;20160;-62
2023/10/31 10:45:11;;;;;;;16.80;14.15;;;;;;;12.24;82.36;100216.88;5038564;28;20041;-63
2023/10/31 10:47:39;;;;;;;15.30;13.73;;;;;;;12.25;82.07;100217.69;5042241;28;20399;-63
2023/10/31 10:50:06;;;;;;;15.68;14.02;;;;;;;12.27;82.80;100221.03;5043336;28;20095;-62
2023/10/31 10:53:00;;;;;;;16.52;13.10;;;;;;;12.29;82.50;100229.94;5042377;28;20097;-62
2023/10/31 10:55:28;;;;;;;15.73;13.07;;;;;;;12.23;82.60;100222.72;5046408;28;20120;-62
2023/10/31 10:58:00;;;;;;;19.67;13.65;;;;;;;12.23;82.37;100231.91;5045631;28;20040;-62
2023/10/31 11:00:26;;;;;;;16.08;14.20;;;;;;;12.21;82.06;100228.53;5064437;28;20120;-62
2023/10/31 11:02:53;;;;;;;15.85;12.90;;;;;;;12.22;82.39;100221.03;5057760;28;20095;-62
2023/10/31 11:05:19;;;;;;;16.25;13.60;;;;;;;12.20;82.16;100226.88;5072741;28;20020;-61
2023/10/31 11:07:46;;;;;;;15.60;14.00;;;;;;;12.18;82.08;100223.56;5057290;28;20125;-61
2023/10/31 11:10:11;;;;;;;16.58;14.70;;;;;;;12.19;82.04;100225.22;5068069;28;20029;-61
2023/10/31 11:12:38;;;;;;;16.15;14.07;;;;;;;12.21;82.52;100222.16;5037767;28;20033;-63